createdAt,value
2019-05-04T00:00:05.743Z,60.20
2019-05-04T00:01:05.751Z,60.30
2019-05-04T00:02:05.853Z,60.00
2019-05-04T00:04:05.899Z,60.49
2019-05-04T00:05:06.185Z,60.30
2019-05-04T00:06:05.999Z,60.30
2019-05-04T00:07:06.001Z,60.10
2019-05-04T00:08:06.024Z,60.30
2019-05-04T00:09:06.026Z,60.20
2019-05-04T00:11:06.124Z,60.39
2019-05-04T00:12:06.457Z,60.39
2019-05-04T00:13:06.182Z,60.20
2019-05-04T00:14:06.256Z,60.30
2019-05-04T00:15:06.299Z,60.30
2019-05-04T00:16:06.317Z,60.30
2019-05-04T00:17:06.324Z,60.68
2019-05-04T00:18:06.288Z,60.39
2019-05-04T00:19:06.683Z,60.10
2019-05-04T00:20:06.518Z,60.30
2019-05-04T00:21:06.439Z,60.49
2019-05-04T00:22:06.470Z,60.39
2019-05-04T00:23:06.496Z,60.77
2019-05-04T00:25:06.699Z,60.39
2019-05-04T00:26:06.897Z,60.39
2019-05-04T00:27:06.624Z,60.20
2019-05-04T00:28:06.792Z,60.68
2019-05-04T00:29:06.721Z,60.87
2019-05-04T00:30:06.721Z,60.30
2019-05-04T00:31:06.734Z,60.20
2019-05-04T00:32:06.790Z,60.87
2019-05-04T00:33:07.124Z,61.07
2019-05-04T00:34:06.848Z,60.87
2019-05-04T00:35:06.888Z,60.77
2019-05-04T00:36:06.911Z,60.58
2019-05-04T00:37:08.230Z,60.97
2019-05-04T00:38:06.933Z,60.97
2019-05-04T00:39:07.004Z,60.97
2019-05-04T00:40:07.055Z,60.87
2019-05-04T00:41:07.033Z,60.87
2019-05-04T00:42:07.101Z,60.68
2019-05-04T00:43:07.087Z,60.87
2019-05-04T00:44:07.119Z,60.87
2019-05-04T00:45:07.260Z,60.77
2019-05-04T00:46:07.546Z,60.68
2019-05-04T00:48:07.239Z,61.45
2019-05-04T00:50:07.325Z,60.77
2019-05-04T00:51:07.419Z,61.16
2019-05-04T00:52:07.767Z,60.87
2019-05-04T00:53:07.514Z,60.97
2019-05-04T00:54:07.459Z,60.87
2019-05-04T00:55:07.540Z,61.25
2019-05-04T00:56:07.498Z,61.07
2019-05-04T00:57:07.591Z,61.35
2019-05-04T00:58:07.924Z,61.25
2019-05-04T00:59:07.696Z,61.35
2019-05-04T01:00:07.636Z,61.35
2019-05-04T01:01:07.692Z,61.25
2019-05-04T01:02:07.780Z,61.16
2019-05-04T01:03:07.797Z,61.16
2019-05-04T01:05:08.129Z,61.65
2019-05-04T01:06:07.856Z,61.35
2019-05-04T01:07:17.339Z,61.35
2019-05-04T01:08:07.938Z,61.65
2019-05-04T01:09:07.910Z,61.65
2019-05-04T01:10:08.028Z,61.45
2019-05-04T01:11:08.315Z,61.45
2019-05-04T01:12:08.075Z,61.55
2019-05-04T01:14:08.119Z,61.35
2019-05-04T01:15:08.174Z,61.35
2019-05-04T01:16:08.184Z,60.97
2019-05-04T01:17:08.167Z,60.77
2019-05-04T01:18:08.553Z,61.07
2019-05-04T01:19:08.271Z,60.68
2019-05-04T01:20:08.338Z,61.07
2019-05-04T01:21:08.341Z,60.97
2019-05-04T01:22:08.323Z,60.87
2019-05-04T01:23:08.409Z,61.16
2019-05-04T01:24:08.382Z,61.35
2019-05-04T01:25:08.761Z,60.58
2019-05-04T01:26:08.445Z,60.97
2019-05-04T01:27:08.523Z,60.97
2019-05-04T01:28:08.670Z,60.68
2019-05-04T01:30:08.618Z,61.35
2019-05-04T01:31:08.645Z,61.65
2019-05-04T01:32:08.983Z,61.65
2019-05-04T01:33:08.684Z,61.35
2019-05-04T01:34:08.756Z,61.35
2019-05-04T01:35:08.791Z,61.55
2019-05-04T01:36:08.802Z,61.93
2019-05-04T01:37:08.817Z,61.74
2019-05-04T01:38:08.829Z,61.71
2019-05-04T01:39:09.210Z,61.93
2019-05-04T01:40:09.004Z,61.93
2019-05-04T01:41:08.921Z,61.65
2019-05-04T01:42:08.944Z,61.52
2019-05-04T01:43:09.040Z,61.55
2019-05-04T01:44:09.519Z,61.45
2019-05-04T01:45:09.099Z,61.65
2019-05-04T01:46:09.470Z,61.55
2019-05-04T01:47:09.278Z,61.65
2019-05-04T01:48:09.230Z,61.45
2019-05-04T01:49:09.168Z,61.42
2019-05-04T01:50:09.246Z,61.42
2019-05-04T01:51:09.299Z,61.52
2019-05-04T01:52:09.340Z,61.35
2019-05-04T01:53:09.658Z,61.65
2019-05-04T01:54:09.325Z,61.52
2019-05-04T01:55:09.403Z,61.55
2019-05-04T01:56:09.389Z,61.65
2019-05-04T01:57:09.477Z,61.52
2019-05-04T01:58:09.451Z,61.61
2019-05-04T01:59:09.536Z,61.42
2019-05-04T02:00:09.871Z,61.61
2019-05-04T02:01:09.554Z,61.52
2019-05-04T02:02:09.576Z,61.61
2019-05-04T02:03:09.615Z,61.61
2019-05-04T02:04:09.696Z,61.61
2019-05-04T02:05:09.728Z,61.32
2019-05-04T02:06:09.756Z,61.42
2019-05-04T02:07:10.085Z,61.52
2019-05-04T02:08:09.808Z,61.71
2019-05-04T02:09:09.814Z,61.61
2019-05-04T02:10:09.894Z,61.52
2019-05-04T02:11:09.904Z,61.52
2019-05-04T02:12:09.901Z,61.61
2019-05-04T02:13:09.972Z,61.52
2019-05-04T02:14:10.304Z,61.71
2019-05-04T02:15:10.037Z,61.32
2019-05-04T02:16:10.065Z,61.32
2019-05-04T02:18:10.125Z,61.90
2019-05-04T02:19:10.266Z,61.22
2019-05-04T02:20:10.190Z,61.52
2019-05-04T02:21:10.620Z,61.80
2019-05-04T02:22:10.208Z,61.80
2019-05-04T02:23:10.235Z,61.90
2019-05-04T02:24:10.347Z,61.80
2019-05-04T02:25:10.352Z,62.19
2019-05-04T02:26:10.328Z,61.90
2019-05-04T02:27:10.646Z,62.19
2019-05-04T02:28:10.800Z,62.19
2019-05-04T02:29:10.419Z,62.09
2019-05-04T02:30:10.457Z,62.09
2019-05-04T02:31:10.482Z,62.19
2019-05-04T02:34:10.581Z,62.09
2019-05-04T02:35:10.967Z,62.29
2019-05-04T02:36:10.687Z,62.38
2019-05-04T02:37:10.721Z,62.29
2019-05-04T02:38:15.416Z,62.29
2019-05-04T02:39:10.754Z,61.90
2019-05-04T02:40:10.875Z,62.29
2019-05-04T02:42:11.179Z,62.09
2019-05-04T02:43:10.926Z,62.00
2019-05-04T02:44:10.901Z,62.19
2019-05-04T02:45:10.925Z,62.00
2019-05-04T02:46:10.953Z,62.19
2019-05-04T02:47:11.041Z,62.09
2019-05-04T02:49:11.398Z,62.19
2019-05-04T02:52:11.205Z,62.19
2019-05-04T02:54:11.262Z,62.29
2019-05-04T02:55:11.604Z,62.19
2019-05-04T02:56:11.323Z,61.90
2019-05-04T02:59:11.417Z,61.90
2019-05-04T03:03:11.834Z,62.09
2019-05-04T03:04:11.596Z,62.09
2019-05-04T03:05:11.596Z,62.00
2019-05-04T03:06:11.672Z,61.80
2019-05-04T03:07:11.665Z,62.00
2019-05-04T03:08:25.613Z,61.80
2019-05-04T03:09:12.030Z,62.09
2019-05-04T03:10:11.897Z,61.80
2019-05-04T03:11:11.730Z,62.00
2019-05-04T03:12:11.768Z,61.80
2019-05-04T03:13:11.920Z,61.80
2019-05-04T03:14:11.988Z,62.00
2019-05-04T03:15:15.529Z,62.00
2019-05-04T03:16:11.894Z,61.90
2019-05-04T03:18:12.016Z,61.71
2019-05-04T03:20:15.265Z,62.00
2019-05-04T03:21:15.425Z,62.09
2019-05-04T03:22:15.294Z,62.29
2019-05-04T03:23:14.798Z,62.19
2019-05-04T03:24:12.157Z,62.09
2019-05-04T03:25:12.174Z,62.29
2019-05-04T03:26:12.261Z,62.09
2019-05-04T03:27:12.293Z,62.48
2019-05-04T03:28:12.261Z,62.09
2019-05-04T03:29:15.806Z,62.19
2019-05-04T03:30:12.410Z,62.38
2019-05-04T03:31:18.106Z,62.35
2019-05-04T03:32:12.461Z,62.19
2019-05-04T03:33:12.493Z,62.00
2019-05-04T03:34:37.570Z,62.38
2019-05-04T03:35:29.669Z,62.29
2019-05-04T03:36:17.196Z,62.26
2019-05-04T03:38:15.594Z,62.29
2019-05-04T03:39:15.602Z,62.29
2019-05-04T03:40:15.831Z,62.35
2019-05-04T03:41:16.198Z,62.16
2019-05-04T03:42:15.547Z,62.19
2019-05-04T03:43:15.867Z,62.06
2019-05-04T03:44:14.901Z,62.09
2019-05-04T03:45:16.021Z,62.45
2019-05-04T03:46:16.051Z,62.54
2019-05-04T03:47:16.121Z,62.54
2019-05-04T03:48:12.913Z,62.35
2019-05-04T03:49:15.294Z,62.06
2019-05-04T03:51:15.507Z,61.97
2019-05-04T03:52:16.015Z,62.06
2019-05-04T03:53:15.295Z,61.77
2019-05-04T03:54:15.463Z,62.06
2019-05-04T03:55:16.020Z,61.87
2019-05-04T03:57:16.075Z,61.87
2019-05-04T03:58:15.435Z,61.87
2019-05-04T04:00:15.919Z,61.97
2019-05-04T04:01:15.758Z,62.16
2019-05-04T04:02:15.824Z,62.06
2019-05-04T04:03:16.269Z,61.87
2019-05-04T04:04:15.412Z,62.35
2019-05-04T04:05:16.311Z,62.26
2019-05-04T04:06:15.910Z,62.26
2019-05-04T04:07:15.400Z,62.06
2019-05-04T04:08:15.818Z,62.45
2019-05-04T04:09:18.511Z,62.06
2019-05-04T04:10:15.739Z,62.35
2019-05-04T04:11:15.364Z,62.16
2019-05-04T04:12:15.198Z,62.35
2019-05-04T04:13:15.589Z,62.54
2019-05-04T04:14:15.912Z,62.26
2019-05-04T04:15:15.962Z,62.45
2019-05-04T04:16:15.431Z,62.16
2019-05-04T04:17:15.114Z,62.16
2019-05-04T04:18:15.100Z,62.45
2019-05-04T04:19:15.158Z,62.35
2019-05-04T04:20:16.047Z,62.74
2019-05-04T04:21:15.569Z,62.54
2019-05-04T04:22:15.823Z,62.54
2019-05-04T04:24:15.177Z,62.54
2019-05-04T04:25:15.877Z,62.35
2019-05-04T04:26:16.190Z,62.35
2019-05-04T04:27:15.642Z,62.54
2019-05-04T04:28:21.891Z,62.54
2019-05-04T04:29:15.951Z,62.54
2019-05-04T04:30:15.654Z,62.16
2019-05-04T04:31:15.550Z,62.35
2019-05-04T04:32:15.584Z,62.26
2019-05-04T04:33:15.937Z,62.26
2019-05-04T04:34:15.737Z,62.26
2019-05-04T04:35:15.470Z,62.54
2019-05-04T04:36:15.568Z,62.16
2019-05-04T04:37:16.046Z,62.35
2019-05-04T04:38:15.827Z,62.26
2019-05-04T04:39:26.176Z,62.26
2019-05-04T04:40:16.037Z,62.26
2019-05-04T04:41:16.107Z,62.26
2019-05-04T04:42:16.544Z,62.45
2019-05-04T04:43:15.404Z,62.35
2019-05-04T04:44:15.730Z,62.54
2019-05-04T04:45:15.767Z,62.54
2019-05-04T04:46:15.215Z,62.54
2019-05-04T04:47:15.566Z,62.54
2019-05-04T04:49:15.664Z,62.16
2019-05-04T04:50:15.104Z,62.35
2019-05-04T04:51:15.960Z,62.35
2019-05-04T04:52:15.439Z,62.26
2019-05-04T04:54:15.742Z,62.26
2019-05-04T04:55:23.885Z,62.26
2019-05-04T04:56:15.964Z,62.26
2019-05-04T04:58:15.419Z,62.26
2019-05-04T04:59:15.541Z,62.16
2019-05-04T05:00:15.672Z,62.16
2019-05-04T05:01:15.243Z,62.35
2019-05-04T05:02:15.790Z,62.26
2019-05-04T05:04:15.399Z,62.26
2019-05-04T05:06:16.923Z,62.45
2019-05-04T05:07:15.726Z,62.54
2019-05-04T05:08:16.483Z,62.35
2019-05-04T05:09:16.084Z,62.16
2019-05-04T05:10:15.821Z,62.26
2019-05-04T05:11:15.531Z,62.35
2019-05-04T05:12:15.649Z,62.35
2019-05-04T05:13:15.739Z,62.35
2019-05-04T05:14:15.912Z,62.64
2019-05-04T05:15:18.122Z,62.16
2019-05-04T05:16:15.972Z,62.45
2019-05-04T05:17:15.731Z,62.45
2019-05-04T05:18:16.127Z,62.35
2019-05-04T05:19:15.810Z,62.74
2019-05-04T05:20:17.392Z,62.93
2019-05-04T05:21:15.845Z,62.74
2019-05-04T05:22:15.859Z,62.64
2019-05-04T05:23:16.252Z,62.83
2019-05-04T05:24:15.941Z,62.54
2019-05-04T05:25:15.952Z,62.64
2019-05-04T05:26:16.002Z,62.64
2019-05-04T05:28:16.056Z,62.74
2019-05-04T05:29:16.188Z,62.74
2019-05-04T05:30:16.532Z,62.74
2019-05-04T05:31:16.466Z,62.64
2019-05-04T05:32:16.173Z,62.83
2019-05-04T05:33:16.239Z,62.64
2019-05-04T05:34:16.267Z,62.64
2019-05-04T05:35:16.270Z,62.74
2019-05-04T05:36:16.326Z,62.26
2019-05-04T05:37:16.485Z,62.16
2019-05-04T05:38:16.377Z,62.54
2019-05-04T05:39:16.394Z,62.45
2019-05-04T05:40:16.522Z,63.02
2019-05-04T05:41:20.540Z,63.12
2019-05-04T05:42:18.821Z,62.64
2019-05-04T05:43:19.204Z,63.12
2019-05-04T05:44:16.665Z,62.74
2019-05-04T05:45:19.358Z,63.12
2019-05-04T05:46:16.698Z,62.83
2019-05-04T05:47:19.493Z,62.83
2019-05-04T05:48:16.854Z,62.93
2019-05-04T05:49:19.066Z,62.74
2019-05-04T05:50:16.817Z,62.83
2019-05-04T05:51:18.777Z,62.74
2019-05-04T05:52:18.200Z,62.83
2019-05-04T05:53:19.018Z,62.83
2019-05-04T05:55:21.689Z,62.83
2019-05-04T05:56:16.976Z,62.83
2019-05-04T05:57:20.057Z,62.74
2019-05-04T05:58:16.989Z,63.02
2019-05-04T05:59:24.437Z,62.83
2019-05-04T06:00:17.116Z,62.83
2019-05-04T06:01:19.709Z,62.64
2019-05-04T06:02:17.317Z,62.74
2019-05-04T06:03:17.128Z,62.83
2019-05-04T06:05:17.759Z,62.45
2019-05-04T06:06:17.229Z,62.54
2019-05-04T06:07:19.992Z,62.54
2019-05-04T06:08:18.864Z,62.35
2019-05-04T06:09:19.550Z,62.54
2019-05-04T06:10:26.857Z,62.54
2019-05-04T06:11:17.680Z,62.64
2019-05-04T06:13:17.445Z,62.26
2019-05-04T06:14:18.814Z,62.54
2019-05-04T06:15:17.858Z,62.26
2019-05-04T06:18:19.441Z,62.45
2019-05-04T06:19:18.121Z,62.45
2019-05-04T06:21:17.782Z,62.54
2019-05-04T06:22:18.604Z,62.45
2019-05-04T06:24:20.677Z,62.45
2019-05-04T06:25:17.896Z,62.16
2019-05-04T06:27:18.185Z,62.16
2019-05-04T06:28:19.998Z,62.35
2019-05-04T06:29:18.440Z,62.54
2019-05-04T06:30:18.860Z,62.35
2019-05-04T06:31:18.004Z,62.06
2019-05-04T06:33:18.157Z,62.26
2019-05-04T06:34:23.115Z,62.26
2019-05-04T06:35:18.139Z,62.45
2019-05-04T06:37:24.219Z,62.06
2019-05-04T06:38:18.275Z,62.06
2019-05-04T06:39:20.021Z,61.87
2019-05-04T06:40:19.056Z,62.26
2019-05-04T06:42:18.952Z,62.35
2019-05-04T06:44:19.343Z,62.06
2019-05-04T06:45:20.133Z,62.26
2019-05-04T06:46:18.615Z,62.26
2019-05-04T06:47:18.552Z,62.38
2019-05-04T06:48:18.538Z,62.29
2019-05-04T06:49:18.830Z,62.54
2019-05-04T06:50:20.071Z,62.48
2019-05-04T06:51:20.109Z,62.38
2019-05-04T06:52:28.611Z,62.57
2019-05-04T06:53:29.632Z,62.57
2019-05-04T06:54:18.717Z,62.29
2019-05-04T06:55:19.786Z,62.38
2019-05-04T06:57:22.181Z,62.09
2019-05-04T06:58:19.847Z,62.38
2019-05-04T06:59:21.205Z,62.48
2019-05-04T07:01:20.739Z,62.57
2019-05-04T07:02:18.966Z,62.67
2019-05-04T07:03:20.038Z,61.90
2019-05-04T07:04:19.402Z,62.09
2019-05-04T07:05:20.895Z,61.80
2019-05-04T07:06:19.432Z,62.19
2019-05-04T07:10:19.331Z,62.19
2019-05-04T07:11:30.929Z,62.29
2019-05-04T07:12:20.299Z,62.19
2019-05-04T07:14:19.603Z,62.38
2019-05-04T07:15:19.502Z,61.80
2019-05-04T07:16:19.402Z,61.90
2019-05-04T07:18:19.806Z,61.80
2019-05-04T07:19:22.523Z,62.00
2019-05-04T07:21:20.512Z,61.80
2019-05-04T07:22:19.536Z,62.19
2019-05-04T07:23:20.009Z,62.19
2019-05-04T07:24:19.860Z,61.52
2019-05-04T07:25:19.815Z,61.71
2019-05-04T07:26:20.422Z,61.80
2019-05-04T07:27:20.794Z,61.52
2019-05-04T07:29:19.805Z,61.42
2019-05-04T07:31:20.970Z,61.52
2019-05-04T07:32:19.963Z,61.52
2019-05-04T07:33:19.969Z,61.32
2019-05-04T07:34:20.127Z,61.90
2019-05-04T07:35:26.183Z,61.61
2019-05-04T07:36:20.054Z,61.52
2019-05-04T07:37:24.891Z,61.61
2019-05-04T07:38:20.042Z,61.52
2019-05-04T07:40:27.559Z,60.55
2019-05-04T07:41:39.440Z,60.84
2019-05-04T07:42:29.330Z,60.65
2019-05-04T07:43:23.160Z,60.94
2019-05-04T07:44:21.017Z,61.13
2019-05-04T07:45:26.387Z,60.94
2019-05-04T07:46:20.443Z,61.61
2019-05-04T07:47:24.986Z,61.22
2019-05-04T07:48:20.439Z,60.97
2019-05-04T07:49:27.248Z,61.04
2019-05-04T07:51:20.693Z,61.13
2019-05-04T07:53:21.915Z,61.22
2019-05-04T07:54:25.727Z,61.61
2019-05-04T07:55:20.837Z,61.22
2019-05-04T07:56:20.693Z,61.22
2019-05-04T07:57:24.858Z,61.42
2019-05-04T07:58:20.718Z,61.61
2019-05-04T07:59:25.595Z,61.61
2019-05-04T08:00:20.839Z,61.32
2019-05-04T08:02:20.885Z,61.22
2019-05-04T08:03:25.674Z,61.32
2019-05-04T08:04:21.284Z,61.22
2019-05-04T08:06:21.383Z,60.65
2019-05-04T08:07:20.994Z,60.46
2019-05-04T08:08:21.049Z,61.16
2019-05-04T08:09:21.130Z,61.13
2019-05-04T08:12:21.524Z,61.13
2019-05-04T08:13:26.173Z,60.87
2019-05-04T08:14:21.477Z,60.87
2019-05-04T08:15:21.389Z,60.77
2019-05-04T08:17:21.343Z,60.77
2019-05-04T08:18:21.545Z,60.58
2019-05-04T08:20:21.767Z,60.77
2019-05-04T08:21:21.502Z,60.77
2019-05-04T08:22:24.251Z,60.68
2019-05-04T08:23:21.449Z,60.87
2019-05-04T08:24:28.872Z,60.49
2019-05-04T08:25:21.691Z,60.30
2019-05-04T08:26:28.204Z,60.10
2019-05-04T08:27:21.618Z,60.39
2019-05-04T08:28:21.748Z,60.39
2019-05-04T08:29:23.342Z,60.20
2019-05-04T08:30:21.724Z,60.39
2019-05-04T08:31:28.412Z,60.20
2019-05-04T08:32:22.442Z,60.10
2019-05-04T08:33:27.722Z,59.91
2019-05-04T08:34:21.846Z,60.20
2019-05-04T08:35:26.426Z,59.72
2019-05-04T08:36:21.917Z,59.91
2019-05-04T08:37:27.040Z,59.81
2019-05-04T08:38:24.469Z,59.72
2019-05-04T08:39:25.541Z,60.39
2019-05-04T08:40:22.140Z,60.20
2019-05-04T08:41:22.126Z,60.39
2019-05-04T08:43:22.130Z,59.81
2019-05-04T08:44:22.181Z,59.43
2019-05-04T08:45:22.499Z,59.62
2019-05-04T08:46:22.482Z,59.62
2019-05-04T08:47:24.159Z,59.23
2019-05-04T08:48:24.515Z,59.72
2019-05-04T08:49:31.415Z,59.72
2019-05-04T08:50:24.572Z,60.20
2019-05-04T08:51:31.271Z,60.20
2019-05-04T08:52:24.089Z,59.91
2019-05-04T08:53:24.157Z,60.00
2019-05-04T08:54:27.040Z,60.10
2019-05-04T08:55:22.965Z,60.20
2019-05-04T08:57:22.535Z,60.39
2019-05-04T08:59:25.059Z,60.10
2019-05-04T09:00:30.397Z,60.39
2019-05-04T09:01:24.407Z,60.20
2019-05-04T09:02:22.842Z,59.91
2019-05-04T09:03:22.788Z,59.33
2019-05-04T09:04:28.431Z,59.14
2019-05-04T09:05:28.426Z,59.04
2019-05-04T09:07:27.256Z,59.33
2019-05-04T09:08:25.080Z,59.52
2019-05-04T09:09:26.615Z,59.33
2019-05-04T09:10:24.872Z,59.04
2019-05-04T09:11:25.070Z,58.56
2019-05-04T09:12:35.326Z,58.95
2019-05-04T09:13:23.095Z,58.56
2019-05-04T09:14:30.118Z,58.56
2019-05-04T09:15:24.402Z,58.65
2019-05-04T09:16:24.278Z,58.95
2019-05-04T09:17:24.717Z,58.95
2019-05-04T09:18:24.404Z,59.52
2019-05-04T09:19:24.855Z,59.43
2019-05-04T09:20:24.204Z,59.23
2019-05-04T09:22:29.222Z,59.72
2019-05-04T09:23:27.852Z,59.33
2019-05-04T09:24:25.121Z,59.52
2019-05-04T09:25:25.284Z,59.52
2019-05-04T09:26:24.774Z,59.33
2019-05-04T09:28:25.594Z,59.91
2019-05-04T09:29:30.191Z,59.72
2019-05-04T09:31:24.897Z,59.81
2019-05-04T09:33:33.171Z,59.52
2019-05-04T09:34:27.491Z,59.43
2019-05-04T09:35:24.798Z,59.52
2019-05-04T09:36:24.129Z,59.81
2019-05-04T09:37:25.277Z,59.52
2019-05-04T09:38:27.256Z,59.52
2019-05-04T09:39:26.450Z,59.72
2019-05-04T09:40:24.552Z,59.62
2019-05-04T09:41:24.140Z,59.62
2019-05-04T09:43:27.349Z,59.33
2019-05-04T09:44:25.449Z,59.43
2019-05-04T09:45:28.237Z,59.33
2019-05-04T09:46:24.567Z,59.33
2019-05-04T09:47:26.484Z,59.43
2019-05-04T09:48:25.224Z,59.33
2019-05-04T09:49:25.365Z,59.23
2019-05-04T09:50:24.789Z,59.62
2019-05-04T09:51:26.557Z,59.52
2019-05-04T09:52:24.822Z,59.62
2019-05-04T09:53:33.158Z,59.33
2019-05-04T09:55:26.693Z,59.52
2019-05-04T09:57:24.944Z,59.23
2019-05-04T09:58:26.533Z,58.75
2019-05-04T09:59:25.214Z,58.65
2019-05-04T10:00:25.191Z,58.95
2019-05-04T10:01:25.000Z,59.52
2019-05-04T10:02:24.940Z,59.33
2019-05-04T10:03:25.986Z,59.33
2019-05-04T10:04:25.156Z,59.23
2019-05-04T10:05:28.168Z,59.43
2019-05-04T10:06:30.375Z,59.43
2019-05-04T10:07:25.507Z,59.17
2019-05-04T10:08:25.560Z,59.52
2019-05-04T10:09:25.185Z,59.33
2019-05-04T10:10:25.383Z,59.62
2019-05-04T10:11:27.532Z,59.33
2019-05-04T10:13:25.149Z,59.36
2019-05-04T10:14:25.505Z,59.17
2019-05-04T10:15:25.454Z,59.45
2019-05-04T10:16:25.589Z,58.78
2019-05-04T10:17:25.151Z,58.78
2019-05-04T10:18:25.658Z,58.47
2019-05-04T10:20:25.292Z,58.49
2019-05-04T10:21:25.737Z,58.40
2019-05-04T10:22:25.445Z,57.43
2019-05-04T10:23:25.432Z,57.21
2019-05-04T10:24:25.392Z,57.62
2019-05-04T10:27:25.394Z,58.69
2019-05-04T10:29:25.590Z,59.45
2019-05-04T10:30:25.689Z,59.55
2019-05-04T10:31:25.864Z,59.45
2019-05-04T10:32:25.781Z,59.55
2019-05-04T10:33:25.746Z,58.97
2019-05-04T10:34:27.295Z,58.69
2019-05-04T10:35:25.785Z,58.88
2019-05-04T10:37:26.179Z,58.69
2019-05-04T10:38:26.097Z,58.20
2019-05-04T10:39:25.836Z,58.40
2019-05-04T10:40:26.199Z,58.40
2019-05-04T10:41:25.885Z,57.62
2019-05-04T10:42:25.930Z,57.43
2019-05-04T10:43:26.006Z,57.24
2019-05-04T10:44:26.682Z,57.53
2019-05-04T10:45:26.036Z,57.72
2019-05-04T10:46:26.750Z,57.72
2019-05-04T10:47:26.341Z,57.82
2019-05-04T10:48:26.330Z,58.20
2019-05-04T10:49:26.126Z,58.11
2019-05-04T10:50:26.338Z,58.30
2019-05-04T10:51:26.306Z,58.40
2019-05-04T10:52:26.411Z,58.78
2019-05-04T10:55:26.379Z,58.40
2019-05-04T10:56:26.318Z,58.49
2019-05-04T10:57:26.355Z,58.59
2019-05-04T10:59:28.295Z,58.59
2019-05-04T11:00:26.886Z,58.59
2019-05-04T11:02:26.679Z,58.78
2019-05-04T11:03:26.658Z,58.20
2019-05-04T11:04:26.863Z,58.78
2019-05-04T11:05:28.967Z,58.78
2019-05-04T11:07:26.725Z,58.69
2019-05-04T11:08:26.849Z,58.69
2019-05-04T11:09:27.000Z,58.69
2019-05-04T11:10:26.815Z,58.20
2019-05-04T11:11:26.962Z,58.59
2019-05-04T11:12:27.354Z,58.40
2019-05-04T11:13:27.215Z,58.69
2019-05-04T11:15:26.940Z,58.69
2019-05-04T11:16:27.027Z,58.20
2019-05-04T11:17:27.179Z,58.40
2019-05-04T11:18:27.092Z,58.01
2019-05-04T11:20:27.151Z,58.01
2019-05-04T11:22:27.300Z,58.11
2019-05-04T11:23:27.290Z,57.62
2019-05-04T11:24:27.488Z,57.34
2019-05-04T11:25:27.541Z,57.62
2019-05-04T11:26:27.412Z,57.24
2019-05-04T11:27:28.058Z,57.43
2019-05-04T11:28:27.554Z,57.43
2019-05-04T11:29:27.456Z,57.82
2019-05-04T11:30:28.401Z,57.72
2019-05-04T11:31:27.494Z,57.82
2019-05-04T11:32:27.908Z,57.92
2019-05-04T11:33:27.596Z,57.82
2019-05-04T11:34:27.624Z,58.20
2019-05-04T11:35:27.675Z,58.20
2019-05-04T11:38:28.018Z,57.72
2019-05-04T11:39:28.043Z,57.53
2019-05-04T11:40:27.834Z,58.20
2019-05-04T11:41:28.182Z,58.49
2019-05-04T11:42:27.967Z,58.11
2019-05-04T11:43:29.790Z,58.40
2019-05-04T11:46:27.989Z,56.95
2019-05-04T11:47:28.071Z,56.85
2019-05-04T11:48:28.139Z,57.24
2019-05-04T11:49:28.062Z,56.57
2019-05-04T11:50:28.417Z,56.95
2019-05-04T11:51:28.332Z,55.99
2019-05-04T11:52:28.498Z,56.09
2019-05-04T11:53:28.316Z,56.47
2019-05-04T11:55:28.449Z,56.76
2019-05-04T11:56:28.289Z,56.85
2019-05-04T11:57:28.346Z,56.27
2019-05-04T11:59:29.960Z,56.57
2019-05-04T12:00:28.530Z,55.79
2019-05-04T12:01:28.554Z,56.18
2019-05-04T12:03:28.544Z,56.85
2019-05-04T12:04:29.450Z,56.95
2019-05-04T12:05:28.723Z,56.76
2019-05-04T12:06:29.121Z,56.27
2019-05-04T12:07:28.699Z,56.85
2019-05-04T12:08:28.791Z,56.27
2019-05-04T12:09:28.835Z,56.09
2019-05-04T12:11:28.771Z,56.11
2019-05-04T12:12:35.185Z,56.85
2019-05-04T12:13:28.800Z,57.05
2019-05-04T12:14:28.865Z,57.05
2019-05-04T12:16:28.947Z,56.95
2019-05-04T12:17:29.408Z,56.76
2019-05-04T12:18:29.664Z,56.37
2019-05-04T12:19:29.088Z,56.27
2019-05-04T12:20:29.383Z,56.27
2019-05-04T12:21:29.211Z,56.09
2019-05-04T12:22:29.109Z,56.09
2019-05-04T12:23:29.259Z,56.27
2019-05-04T12:24:29.527Z,56.76
2019-05-04T12:25:29.615Z,56.09
2019-05-04T12:27:29.802Z,56.59
2019-05-04T12:28:29.330Z,56.57
2019-05-04T12:29:29.665Z,56.09
2019-05-04T12:30:29.486Z,55.99
2019-05-04T12:31:29.587Z,56.27
2019-05-04T12:32:29.563Z,55.60
2019-05-04T12:33:29.613Z,55.60
2019-05-04T12:34:29.670Z,55.89
2019-05-04T12:35:30.293Z,55.70
2019-05-04T12:36:29.816Z,56.27
2019-05-04T12:37:30.235Z,56.57
2019-05-04T12:38:29.654Z,56.66
2019-05-04T12:39:29.849Z,57.14
2019-05-04T12:40:29.955Z,56.18
2019-05-04T12:41:30.434Z,56.27
2019-05-04T12:42:29.850Z,56.66
2019-05-04T12:43:29.824Z,56.66
2019-05-04T12:44:30.183Z,56.47
2019-05-04T12:45:30.653Z,56.66
2019-05-04T12:46:30.375Z,56.85
2019-05-04T12:47:30.017Z,56.76
2019-05-04T12:48:30.006Z,57.05
2019-05-04T12:49:30.202Z,56.95
2019-05-04T12:50:31.596Z,56.76
2019-05-04T12:51:30.195Z,56.95
2019-05-04T12:52:30.136Z,56.95
2019-05-04T12:53:31.048Z,56.95
2019-05-04T12:54:30.539Z,57.14
2019-05-04T12:55:30.245Z,57.14
2019-05-04T12:56:30.181Z,57.27
2019-05-04T12:57:30.772Z,57.94
2019-05-04T12:58:30.389Z,57.05
2019-05-04T12:59:30.635Z,56.88
2019-05-04T13:00:30.398Z,56.59
2019-05-04T13:01:30.469Z,56.69
2019-05-04T13:02:30.544Z,56.98
2019-05-04T13:03:30.486Z,56.21
2019-05-04T13:04:31.266Z,56.79
2019-05-04T13:05:31.445Z,56.11
2019-05-04T13:06:30.570Z,55.92
2019-05-04T13:07:30.635Z,55.34
2019-05-04T13:08:30.878Z,55.34
2019-05-04T13:09:30.747Z,54.96
2019-05-04T13:10:30.694Z,55.34
2019-05-04T13:11:30.745Z,55.63
2019-05-04T13:12:30.767Z,55.54
2019-05-04T13:13:30.799Z,55.24
2019-05-04T13:14:30.831Z,55.24
2019-05-04T13:15:30.873Z,55.54
2019-05-04T13:16:30.836Z,55.34
2019-05-04T13:17:31.349Z,55.73
2019-05-04T13:18:31.386Z,55.54
2019-05-04T13:19:30.986Z,55.54
2019-05-04T13:20:31.122Z,55.92
2019-05-04T13:23:31.180Z,56.98
2019-05-04T13:24:31.384Z,56.88
2019-05-04T13:25:31.192Z,56.62
2019-05-04T13:26:31.219Z,56.72
2019-05-04T13:27:31.277Z,56.04
2019-05-04T13:28:31.295Z,56.24
2019-05-04T13:36:32.237Z,54.65
2019-05-04T13:37:31.554Z,54.27
2019-05-04T13:38:31.582Z,53.69
2019-05-04T13:39:31.704Z,53.39
2019-05-04T13:40:31.730Z,53.30
2019-05-04T13:41:31.838Z,53.23
2019-05-04T13:42:34.112Z,53.13
2019-05-04T13:43:32.042Z,52.94
2019-05-04T13:44:34.846Z,53.23
2019-05-04T13:45:31.906Z,52.65
2019-05-04T13:47:34.275Z,52.39
2019-05-04T13:48:34.814Z,52.48
2019-05-04T13:50:32.011Z,52.29
2019-05-04T13:51:32.206Z,52.00
2019-05-04T13:52:32.171Z,52.09
2019-05-04T13:55:32.287Z,51.73
2019-05-04T13:56:32.584Z,51.64
2019-05-04T13:57:34.432Z,51.25
2019-05-04T13:58:32.356Z,51.25
2019-05-04T13:59:34.310Z,51.25
2019-05-04T14:00:35.052Z,51.35
2019-05-04T14:01:34.291Z,50.76
2019-05-04T14:02:34.566Z,50.76
2019-05-04T14:04:34.375Z,51.15
2019-05-04T14:07:34.785Z,51.25
2019-05-04T14:08:32.778Z,51.25
2019-05-04T14:09:34.711Z,51.35
2019-05-04T14:11:34.496Z,51.06
2019-05-04T14:12:34.618Z,50.38
2019-05-04T14:13:34.647Z,50.76
2019-05-04T14:15:34.551Z,50.70
2019-05-04T14:16:34.531Z,50.50
2019-05-04T14:17:35.016Z,50.31
2019-05-04T14:19:34.869Z,50.12
2019-05-04T14:20:34.942Z,50.12
2019-05-04T14:21:35.233Z,49.73
2019-05-04T14:22:34.551Z,49.75
2019-05-04T14:23:34.622Z,49.75
2019-05-04T14:25:35.071Z,49.82
2019-05-04T14:26:35.090Z,49.75
2019-05-04T14:27:34.656Z,49.85
2019-05-04T14:28:33.632Z,49.92
2019-05-04T14:29:34.736Z,49.92
2019-05-04T14:30:35.105Z,49.82
2019-05-04T14:31:35.442Z,49.73
2019-05-04T14:32:33.832Z,49.82
2019-05-04T14:33:33.672Z,50.31
2019-05-04T14:34:34.824Z,50.31
2019-05-04T14:35:35.349Z,50.40
2019-05-04T14:36:34.547Z,49.85
2019-05-04T14:37:34.749Z,49.82
2019-05-04T14:38:34.695Z,49.65
2019-05-04T14:39:34.411Z,49.85
2019-05-04T14:40:34.763Z,49.95
2019-05-04T14:41:34.058Z,49.95
2019-05-04T14:42:34.853Z,49.65
2019-05-04T14:43:34.741Z,49.58
2019-05-04T14:44:37.106Z,49.19
2019-05-04T14:48:35.395Z,48.81
2019-05-04T14:49:34.942Z,48.83
2019-05-04T14:51:34.766Z,48.93
2019-05-04T14:52:34.425Z,48.35
2019-05-04T14:53:35.156Z,48.35
2019-05-04T14:54:36.453Z,48.15
2019-05-04T14:55:35.188Z,47.96
2019-05-04T14:56:35.033Z,48.15